• Join FlightAware (Why Join?)
  • Login
  • US Flag 
11:24PM EST


 

Airport Tracker/Info


-or-


 

Live Flight TrackerFlight Track Log ✈ UAL903 ✈ 17-Nov-2013 ✈ KSFO - EDDF / FRA

Flight Track Log - Related Links

Times and Time Zones

All times are in EST time to prevent confusion due to time zone crossing. See the UAL903 flight status page for this flight to view local times or setup timezone preferences in your user account.

Time Position Orientation Groundspeed Altitude Reporting Facility
EST Latitude Longitude Course Direction KTS MPH feet Rate Location/Type
04:51PM 37.6190 -122.3920 21° North  Level FlightAware
04:54PM 37.8829 -122.1004 38° Northeast  Level FlightAware Approximate
04:55PM 37.9894 -121.9939 38° Northeast  Level FlightAware Approximate
04:56PM 38.0960 -121.8873 38° Northeast  Level FlightAware Approximate
04:57PM 38.2026 -121.7807 38° Northeast  Level FlightAware Approximate
04:58PM 38.3093 -121.6741 38° Northeast  Level FlightAware Approximate
04:59PM 38.4160 -121.5673 38° Northeast  Level FlightAware Approximate
05:00PM 38.4989 -121.4345 38° Northeast  Level FlightAware Approximate
05:01PM 38.5817 -121.2972 52° Northeast  Level FlightAware Approximate
05:02PM 38.6640 -121.1592 53° Northeast  Level FlightAware Approximate
05:11PM 37.6162 -122.3690 297° West 110 127  Level FlightAware ADS-B
05:11PM 37.6236 -122.3870 297° West 172 198 900 Level FlightAware ADS-B
05:11PM 37.6297 -122.4010 299° West 166 191 600 1,980 Climbing FlightAware ADS-B
05:11PM 37.6350 -122.4120 301° West 172 198 1,000 1,560 Climbing FlightAware ADS-B
05:12PM 37.6374 -122.4180 297° West 175 201 1,100 1,320 Climbing FlightAware ADS-B
05:12PM 37.6435 -122.4310 301° West 177 204 1,500 1,320 Climbing FlightAware ADS-B
05:12PM 37.6496 -122.4460 297° West 186 214 1,800 1,500 Climbing FlightAware ADS-B
05:12PM 37.6558 -122.4610 298° West 186 214 2,300 1,860 Climbing FlightAware ADS-B
05:13PM 37.6638 -122.4800 298° West 184 212 2,900 1,620 Climbing FlightAware ADS-B
05:13PM 37.6682 -122.4890 302° West 192 221 3,100 1,260 Climbing FlightAware ADS-B
05:13PM 37.6702 -122.4920 310° West 195 224 3,200 1,080 Climbing FlightAware ADS-B
05:13PM 37.6742 -122.4980 310° West 197 227 3,300 840 Climbing FlightAware ADS-B
05:13PM 37.6793 -122.5030 322° Northwest 201 231 3,400 840 Climbing FlightAware ADS-B
05:13PM 37.6852 -122.5070 332° Northwest 210 242 3,500 960 Climbing FlightAware ADS-B
05:14PM 37.7420 -122.5260 345° North 264 304 4,400 1,500 Climbing FlightAware
05:15PM 37.7951 -122.5120 12° North 283 326 6,000 2,340 Climbing FlightAware ADS-B
05:15PM 37.7993 -122.5080 37° Northeast 284 327 6,200 2,400 Climbing FlightAware ADS-B
05:16PM 37.8324 -122.4500 54° Northeast 284 327 7,900 2,460 Climbing FlightAware ADS-B
05:16PM 37.8418 -122.4230 66° East 284 327 8,700 2,220 Climbing FlightAware ADS-B
05:17PM 37.8639 -122.3590 66° East 311 358 10,000 1,560 Climbing FlightAware ADS-B
05:17PM 37.8881 -122.2890 66° East 350 403 10,800 1,320 Climbing FlightAware ADS-B
05:18PM 37.9120 -122.2260 64° Northeast 366 421 11,600 1,440 Climbing FlightAware ADS-B
05:18PM 37.9160 -122.2190 54° Northeast 376 433 11,700 1,500 Climbing FlightAware ADS-B
05:18PM 37.9342 -122.1930 48° Northeast 386 444 12,100 1,920 Climbing FlightAware ADS-B
05:18PM 37.9577 -122.1650 43° Northeast 390 449 12,800 2,400 Climbing FlightAware ADS-B
05:19PM 37.9978 -122.1160 44° Northeast 394 453 14,100 2,400 Climbing FlightAware ADS-B
05:19PM 38.0389 -122.0640 45° Northeast 403 464 15,300 2,040 Climbing FlightAware ADS-B
05:20PM 38.0790 -122.0140 44° Northeast 412 474 16,200 1,860 Climbing FlightAware
05:20PM 38.1202 -121.9620 45° Northeast 421 484 17,200 1,740 Climbing FlightAware ADS-B
05:21PM 38.1970 -121.8640 45° Northeast 439 505 18,700 1,560 Climbing FlightAware
05:22PM 38.2720 -121.7700 45° Northeast 456 525 20,000 1,560 Climbing FlightAware
05:23PM 38.3460 -121.6760 45° Northeast 468 539 21,300 1,500 Climbing FlightAware
05:23PM 38.3860 -121.6250 45° Northeast 475 547 21,900 1,380 Climbing FlightAware
05:24PM 38.4350 -121.5600 46° Northeast 484 557 22,700 1,440 Climbing FlightAware
05:25PM 38.5040 -121.4440 53° Northeast 496 571 23,900 1,440 Climbing FlightAware
05:26PM 38.5800 -121.3180 52° Northeast 503 579 25,200 1,500 Climbing FlightAware
05:26PM 38.6420 -121.2130 53° Northeast 504 580 26,400 1,440 Climbing FlightAware
05:27PM 38.7200 -121.0780 53° Northeast 512 589 27,600 1,140 Climbing FlightAware
05:28PM 38.7950 -120.9500 53° Northeast 519 597 28,500 1,020 Climbing FlightAware
05:29PM 38.9060 -120.8290 40° Northeast 521 600 29,600 1,200 Climbing FlightAware
05:30PM 38.9980 -120.7440 36° Northeast 517 595 30,700 1,380 Climbing FlightAware
05:31PM 39.0890 -120.6610 35° Northeast 513 590 31,800 1,260 Climbing FlightAware
05:32PM 39.2020 -120.5570 35° Northeast 508 585 33,000 660 Climbing FlightAware
05:33PM 39.2950 -120.4720 35° Northeast 506 582 33,000  Level FlightAware
05:34PM 39.4030 -120.3720 36° Northeast 503 579 33,000  Level FlightAware
05:34PM 39.4600 -120.3190 36° Northeast 502 578 33,000  Level FlightAware
05:35PM 39.5450 -120.2400 36° Northeast 502 578 33,000  Level FlightAware
05:36PM 39.6400 -120.1510 36° Northeast 504 580 33,000  Level FlightAware
05:36PM 39.7210 -120.0750 36° Northeast 506 582 33,000  Level FlightAware
05:37PM 39.8110 -119.9900 36° Northeast 507 583 33,000  Level FlightAware
05:38PM 39.9030 -119.9020 36° Northeast 508 585 33,000  Level FlightAware
05:39PM 39.9880 -119.8210 36° Northeast 508 585 33,000  Level FlightAware
05:39PM 40.0750 -119.7370 36° Northeast 508 585 33,000  Level FlightAware
05:40PM 40.1600 -119.6550 36° Northeast 508 585 33,000  Level FlightAware
05:41PM 40.2040 -119.6130 36° Northeast 507 583 33,000  Level FlightAware
05:42PM 40.3180 -119.5020 37° Northeast 508 585 33,000  Level FlightAware
05:42PM 40.4080 -119.4140 37° Northeast 510 587 33,100 540 Climbing FlightAware
05:43PM 40.4820 -119.3420 36° Northeast 508 585 33,800 960 Climbing FlightAware
05:44PM 40.5790 -119.2470 37° Northeast 505 581 34,600 720 Climbing FlightAware
05:45PM 40.6640 -119.1640 37° Northeast 506 582 35,000 300 Climbing FlightAware
05:45PM 40.6990 -119.1300 36° Northeast 505 581 35,000  Level FlightAware
05:46PM 40.7900 -119.0410 37° Northeast 505 581 35,000  Level FlightAware
05:47PM 40.8640 -118.9670 37° Northeast 504 580 35,000  Level FlightAware
05:48PM 40.9240 -118.9070 37° Northeast 504 580 35,000  Level FlightAware
05:49PM 40.9080 -118.9230 217° Southwest 503 579 35,000  Level FlightAware
05:49PM 40.9480 -118.8830 37° Northeast 503 579 35,000  Level FlightAware
05:50PM 40.9870 -118.8440 37° Northeast 503 579 35,000  Level FlightAware
05:51PM 41.0820 -118.7490 37° Northeast 503 579 35,000  Level FlightAware
05:53PM 41.6170 -118.2090 37° Northeast 500 575 35,000  Level FlightAware
05:54PM 41.7040 -118.1200 37° Northeast 499 574 35,000  Level FlightAware
05:55PM 41.7850 -118.0370 37° Northeast 498 573 35,000  Level FlightAware
05:55PM 41.8590 -117.9610 37° Northeast 499 574 35,000  Level FlightAware
05:56PM 41.9650 -117.8520 37° Northeast 498 573 35,000  Level FlightAware
05:57PM 42.0610 -117.7510 38° Northeast 495 570 35,000  Level FlightAware
05:58PM 42.1400 -117.6690 38° Northeast 494 568 35,000  Level FlightAware
05:59PM 42.2270 -117.5780 38° Northeast 493 567 35,000  Level FlightAware
06:00PM 42.3070 -117.4950 37° Northeast 493 567 35,000  Level FlightAware
06:00PM 42.4020 -117.3940 38° Northeast 494 568 35,000  Level FlightAware
06:01PM 42.4760 -117.3160 38° Northeast 494 568 35,000  Level FlightAware
06:02PM 42.5580 -117.2290 38° Northeast 494 568 35,000  Level FlightAware
06:02PM 42.5910 -117.1940 38° Northeast 494 568 35,000  Level FlightAware
06:03PM 42.6990 -117.0790 38° Northeast 493 567 35,000  Level FlightAware
06:04PM 42.7960 -116.9750 38° Northeast 491 565 35,000  Level FlightAware
06:07PM 43.0750 -116.6740 38° Northeast 491 565 35,000  Level FlightAware
06:08PM 43.2390 -116.4960 38° Northeast 493 567 35,000  Level FlightAware
06:09PM 43.3100 -116.4180 39° Northeast 494 568 35,000  Level FlightAware
06:10PM 43.3960 -116.3230 39° Northeast 493 567 35,000  Level FlightAware
06:11PM 43.4800 -116.2310 38° Northeast 494 568 35,000  Level FlightAware
06:12PM 43.6830 -116.0060 39° Northeast 492 566 35,000  Level FlightAware
06:15PM 43.9750 -115.6790 39° Northeast 496 571 35,000  Level FlightAware
06:16PM 44.0390 -115.6060 39° Northeast 498 573 35,000  Level FlightAware
06:18PM 44.2810 -115.3310 39° Northeast 497 572 35,000  Level FlightAware
06:19PM 44.3480 -115.2540 39° Northeast 495 570 35,000  Level FlightAware
06:19PM 44.4300 -115.1600 39° Northeast 497 572 35,000  Level FlightAware
06:21PM 44.6150 -114.9460 39° Northeast 499 574 35,000  Level FlightAware
06:23PM 44.8330 -114.6940 39° Northeast 499 574 35,000  Level FlightAware
06:24PM 44.9070 -114.6100 39° Northeast 499 574 35,000  Level FlightAware
06:25PM 44.9980 -114.5050 39° Northeast 499 574 35,000  Level FlightAware
06:26PM 45.0360 -114.4620 39° Northeast 499 574 35,000  Level FlightAware
06:30PM 45.6200 -113.7490 40° Northeast 514 592 35,000  Level FlightAware
06:31PM 45.7180 -113.6300 40° Northeast 513 590 35,000  Level FlightAware
06:32PM 45.7840 -113.5490 41° Northeast 511 588 35,000  Level FlightAware
06:33PM 45.8890 -113.4190 41° Northeast 509 586 35,000  Level FlightAware
06:33PM 45.9240 -113.3750 41° Northeast 508 585 35,000  Level FlightAware
06:34PM 46.0200 -113.2570 40° Northeast 509 586 35,000  Level FlightAware
06:35PM 46.0930 -113.1660 41° Northeast 508 585 35,000  Level FlightAware
06:36PM 46.1770 -113.0600 41° Northeast 508 585 35,000  Level FlightAware
06:36PM 46.2490 -112.9700 41° Northeast 508 585 35,000  Level FlightAware
06:39PM 46.4880 -112.6680 41° Northeast 506 582 35,000  Level FlightAware
06:42PM 46.7940 -112.2750 41° Northeast 505 581 35,000  Level FlightAware
06:43PM 46.9040 -112.1330 41° Northeast 506 582 35,000  Level FlightAware
06:43PM 46.9810 -112.0320 42° Northeast 505 581 35,000  Level FlightAware
06:44PM 47.0590 -111.9330 41° Northeast 505 581 35,000  Level FlightAware
06:45PM 47.1350 -111.8310 42° Northeast 507 583 35,000  Level FlightAware
06:45PM 47.1890 -111.7590 42° Northeast 508 585 35,000  Level FlightAware
06:46PM 47.2610 -111.6640 42° Northeast 510 587 35,000  Level FlightAware
06:46PM 47.3090 -111.6010 42° Northeast 509 586 35,000  Level FlightAware
06:47PM 47.3590 -111.5330 43° Northeast 509 586 35,000  Level FlightAware
06:48PM 47.4560 -111.4040 42° Northeast 509 586 35,000  Level FlightAware
06:48PM 47.5160 -111.3300 40° Northeast 508 585 35,000  Level FlightAware
06:49PM 47.5910 -111.2410 39° Northeast 509 586 35,000  Level FlightAware
06:50PM 47.6560 -111.1620 39° Northeast 510 587 35,000  Level FlightAware
06:51PM 47.7540 -111.0400 40° Northeast 514 592 35,000  Level FlightAware
06:51PM 47.8260 -110.9530 39° Northeast 514 592 35,000  Level FlightAware
06:52PM 47.8930 -110.8700 40° Northeast 513 590 35,000  Level FlightAware
06:53PM 47.9700 -110.7740 40° Northeast 513 590 35,000  Level FlightAware
06:53PM 48.0180 -110.7150 39° Northeast 512 589 35,000  Level FlightAware
06:54PM 48.0880 -110.6270 40° Northeast 511 588 35,000  Level FlightAware
06:55PM 48.1950 -110.4930 40° Northeast 511 588 35,000  Level FlightAware
06:55PM 48.2700 -110.3980 40° Northeast 511 588 35,000  Level FlightAware
06:56PM 48.3450 -110.3040 40° Northeast 510 587 35,000  Level FlightAware
06:57PM 48.3960 -110.2380 41° Northeast 510 587 35,000  Level FlightAware
06:57PM 48.4660 -110.1500 40° Northeast 510 587 35,000  Level FlightAware
06:58PM 48.5410 -110.0540 40° Northeast 512 589 35,000  Level FlightAware
06:59PM 48.6170 -109.9550 41° Northeast 512 589 35,000  Level FlightAware
06:59PM 48.6960 -109.8550 40° Northeast 512 589 35,000  Level FlightAware
07:00PM 48.7667 -109.8000 40° Northeast 520 598 35,000  Level Winnipeg Center
07:01PM 48.8667 -109.6333 48° Northeast 520 598 35,000  Level Winnipeg Center
07:02PM 48.9667 -109.4833 45° Northeast 510 587 35,000  Level Winnipeg Center
07:03PM 49.0833 -109.3333 40° Northeast 510 587 35,000  Level Winnipeg Center
07:04PM 49.1833 -109.2000 41° Northeast 510 587 35,000  Level Winnipeg Center
07:05PM 49.3000 -109.0833 33° Northeast 510 587 35,000  Level Winnipeg Center
07:06PM 49.4000 -108.9333 44° Northeast 510 587 35,000  Level Winnipeg Center
07:07PM 49.5167 -108.7667 43° Northeast 510 587 35,000  Level Winnipeg Center
07:08PM 49.6167 -108.6500 37° Northeast 510 587 35,000  Level Winnipeg Center
07:09PM 49.7167 -108.4833 47° Northeast 510 587 35,000  Level Winnipeg Center
07:10PM 49.8333 -108.3333 40° Northeast 510 587 35,000  Level Winnipeg Center
07:11PM 49.9500 -108.2000 36° Northeast 510 587 35,000  Level Winnipeg Center
07:12PM 50.0500 -108.0333 47° Northeast 510 587 35,000  Level Winnipeg Center
07:13PM 50.1500 -107.9000 40° Northeast 510 587 35,000  Level Winnipeg Center
07:14PM 50.2667 -107.7500 39° Northeast 510 587 35,000  Level Winnipeg Center
07:15PM 50.3500 -107.5833 52° Northeast 520 598 35,000  Level Winnipeg Center
07:16PM 50.4333 -107.3833 57° Northeast 530 610 35,000  Level Winnipeg Center
07:17PM 50.5167 -107.2167 52° Northeast 520 598 35,000  Level Winnipeg Center
07:18PM 50.6000 -107.0333 54° Northeast 540 621 35,000  Level Winnipeg Center
07:19PM 50.7000 -106.8333 52° Northeast 530 610 35,000  Level Winnipeg Center
07:20PM 50.7833 -106.6500 54° Northeast 530 610 35,000  Level Winnipeg Center
07:21PM 50.8667 -106.4500 57° Northeast 530 610 35,000  Level Winnipeg Center
07:22PM 50.9667 -106.2833 46° Northeast 530 610 35,000  Level Winnipeg Center
07:23PM 51.0500 -106.0833 56° Northeast 530 610 35,000  Level Winnipeg Center
07:24PM 51.1333 -105.8833 56° Northeast 530 610 35,000  Level Winnipeg Center
07:25PM 51.2000 -105.7167 57° Northeast 530 610 35,000  Level Winnipeg Center
07:26PM 51.2833 -105.5167 56° Northeast 520 598 35,000  Level Winnipeg Center
07:27PM 51.3833 -105.3167 51° Northeast 530 610 35,000  Level Winnipeg Center
07:28PM 51.4667 -105.1500 51° Northeast 520 598 35,000  Level Winnipeg Center
07:29PM 51.5500 -104.9500 56° Northeast 520 598 35,000  Level Winnipeg Center
07:30PM 51.6333 -104.7333 58° Northeast 520 598 35,000  Level Winnipeg Center
07:31PM 51.7167 -104.5333 56° Northeast 520 598 35,000  Level Winnipeg Center
07:32PM 51.7833 -104.3667 57° Northeast 520 598 35,000  Level Winnipeg Center
07:33PM 51.8833 -104.1667 51° Northeast 530 610 35,000  Level Winnipeg Center
07:34PM 51.9667 -103.9500 58° Northeast 530 610 35,000  Level Winnipeg Center
07:35PM 52.0500 -103.7500 56° Northeast 530 610 35,000  Level Winnipeg Center
07:36PM 52.1167 -103.5667 59° Northeast 520 598 35,000  Level Winnipeg Center
07:37PM 52.2000 -103.3667 56° Northeast 520 598 35,000  Level Winnipeg Center
07:38PM 52.3000 -103.1500 53° Northeast 520 598 35,000  Level Winnipeg Center
07:39PM 52.3667 -102.9667 59° Northeast 530 610 35,000  Level Winnipeg Center
07:40PM 52.4500 -102.7667 56° Northeast 520 598 35,000  Level Winnipeg Center
07:41PM 52.5333 -102.5500 58° Northeast 530 610 35,000  Level Winnipeg Center
07:42PM 52.6000 -102.3667 59° Northeast 530 610 35,000  Level Winnipeg Center
07:43PM 52.6833 -102.1667 55° Northeast 530 610 35,000  Level Winnipeg Center
07:44PM 52.7667 -101.9500 57° Northeast 530 610 35,000  Level Winnipeg Center
07:45PM 52.8500 -101.7333 57° Northeast 530 610 35,000  Level Winnipeg Center
07:46PM 52.9167 -101.5500 59° Northeast 530 610 35,000  Level Winnipeg Center
07:47PM 53.0000 -101.3667 53° Northeast 530 610 35,000  Level Winnipeg Center
07:48PM 53.0833 -101.1167 61° Northeast 530 610 35,000  Level Winnipeg Center
07:49PM 53.1667 -100.9000 57° Northeast 530 610 35,000  Level Winnipeg Center
07:50PM 53.2333 -100.7167 59° Northeast 520 598 35,000  Level Winnipeg Center
07:51PM 53.3167 -100.5000 57° Northeast 530 610 35,000  Level Winnipeg Center
07:52PM 53.3833 -100.2833 63° Northeast 530 610 35,000  Level Winnipeg Center
07:53PM 53.4500 -100.0500 64° Northeast 530 610 35,000  Level Winnipeg Center
07:54PM 53.5333 -99.8667 53° Northeast 530 610 35,000  Level Winnipeg Center
07:55PM 53.6167 -99.6500 57° Northeast 530 610 35,000  Level Winnipeg Center
07:56PM 53.6833 -99.4167 64° Northeast 530 610 35,000  Level Winnipeg Center
07:57PM 53.7500 -99.2333 58° Northeast 520 598 35,000  Level Winnipeg Center
07:58PM 53.8333 -99.0000 59° Northeast 530 610 35,000  Level Winnipeg Center
07:59PM 53.9000 -98.7833 62° Northeast 520 598 35,000  Level Winnipeg Center
08:00PM 53.9833 -98.5500 59° Northeast 520 598 35,000  Level Winnipeg Center
08:01PM 54.0500 -98.3667 58° Northeast 530 610 35,000  Level Winnipeg Center
08:02PM 54.1167 -98.1333 64° Northeast 520 598 35,000  Level Winnipeg Center
08:03PM 54.2000 -97.9333 54° Northeast 520 598 35,000  Level Winnipeg Center
08:04PM 54.2667 -97.7000 64° Northeast 520 598 35,000  Level Winnipeg Center
08:05PM 54.3333 -97.4833 62° Northeast 520 598 35,000  Level Winnipeg Center
08:06PM 54.4000 -97.2833 60° Northeast 520 598 35,000  Level Winnipeg Center
08:07PM 54.4833 -97.0500 58° Northeast 520 598 35,000  Level Winnipeg Center
08:08PM 54.5500 -96.8500 60° Northeast 520 598 35,000  Level Winnipeg Center
08:09PM 54.6167 -96.6167 64° Northeast 520 598 35,000  Level Winnipeg Center
08:10PM 54.6833 -96.3833 64° Northeast 530 610 35,000  Level Winnipeg Center
08:11PM 54.7500 -96.1500 64° Northeast 520 598 35,000  Level Winnipeg Center
08:12PM 54.8167 -95.9500 60° Northeast 520 598 35,000  Level Winnipeg Center
08:13PM 54.8833 -95.7167 64° Northeast 530 610 35,000  Level Winnipeg Center
08:14PM 54.9500 -95.4833 63° Northeast 530 610 35,000  Level Winnipeg Center
08:15PM 55.0167 -95.2667 62° Northeast 530 610 35,000  Level Winnipeg Center
08:16PM 55.0833 -95.0333 63° Northeast 530 610 35,000  Level Winnipeg Center
08:17PM 55.1500 -94.8000 63° Northeast 530 610 35,000  Level Winnipeg Center
08:18PM 55.2167 -94.5500 65° Northeast 530 610 35,000  Level Winnipeg Center
08:19PM 55.2667 -94.3500 66° East 530 610 35,000  Level Winnipeg Center
08:20PM 55.3500 -94.1000 60° Northeast 530 610 35,000  Level Winnipeg Center
08:21PM 55.4167 -93.8667 63° Northeast 530 610 35,000  Level Winnipeg Center
08:22PM 55.4667 -93.6500 68° East 530 610 35,000  Level Winnipeg Center
08:23PM 55.5333 -93.4167 63° Northeast 530 610 35,000  Level Winnipeg Center
08:24PM 55.6000 -93.1667 65° Northeast 520 598 35,000  Level Winnipeg Center
08:25PM 55.6667 -92.9333 63° Northeast 520 598 35,000  Level Winnipeg Center
08:26PM 55.7333 -92.7167 61° Northeast 520 598 35,000  Level Winnipeg Center
08:27PM 55.7833 -92.4667 70° East 530 610 35,000  Level Winnipeg Center
08:28PM 55.8500 -92.2500 61° Northeast 520 598 35,000  Level Winnipeg Center
08:29PM 55.9000 -92.0000 70° East 520 598 35,000  Level Winnipeg Center
08:30PM 55.9667 -91.7500 64° Northeast 520 598 35,000  Level Winnipeg Center
08:31PM 56.0167 -91.5333 67° East 520 598 35,000  Level Winnipeg Center
08:32PM 56.1000 -91.2833 59° Northeast 530 610 35,000  Level Winnipeg Center
08:33PM 56.1500 -91.0333 70° East 530 610 35,000  Level Winnipeg Center
08:34PM 56.2000 -90.7833 70° East 530 610 35,000  Level Winnipeg Center
08:35PM 56.2667 -90.5667 61° Northeast 530 610 35,000  Level Winnipeg Center
08:36PM 56.3167 -90.2833 72° East 530 610 35,000  Level Winnipeg Center
08:37PM 56.3833 -90.0667 61° Northeast 530 610 35,000  Level Winnipeg Center
08:38PM 56.4500 -89.8333 63° Northeast 540 621 35,000  Level Winnipeg Center
08:39PM 56.5667 -89.6000 48° Northeast 540 621 35,000  Level Winnipeg Center
08:40PM 56.6500 -89.4000 53° Northeast 540 621 35,000  Level Winnipeg Center
08:41PM 56.7333 -89.2000 53° Northeast 540 621 35,000  Level Winnipeg Center
08:42PM 56.8333 -89.0000 48° Northeast 540 621 35,000  Level Winnipeg Center
08:43PM 56.9333 -88.7667 52° Northeast 550 633 35,000  Level Winnipeg Center
08:44PM 57.0167 -88.5333 57° Northeast 550 633 35,000  Level Winnipeg Center
08:45PM 57.1167 -88.3167 50° Northeast 540 621 35,000  Level Winnipeg Center
08:46PM 57.2000 -88.1167 52° Northeast 550 633 35,000  Level Winnipeg Center
08:47PM 57.3000 -87.8000 60° Northeast 540 621 35,000  Level Edmonton Center
08:48PM 57.4000 -87.5500 53° Northeast 540 621 35,000  Level Edmonton Center
08:49PM 57.4833 -87.3333 54° Northeast 540 621 35,000  Level Edmonton Center
08:50PM 57.5833 -87.1000 51° Northeast 540 621 35,000  Level Edmonton Center
08:51PM 57.6667 -86.8833 54° Northeast 550 633 35,000  Level Edmonton Center
08:52PM 57.7500 -86.6500 56° Northeast 540 621 35,000  Level Edmonton Center
08:53PM 57.8333 -86.4000 58° Northeast 540 621 35,000  Level Edmonton Center
08:54PM 57.9333 -86.2000 47° Northeast 540 621 35,000  Level Edmonton Center
08:55PM 58.0167 -85.9500 58° Northeast 550 633 35,000  Level Edmonton Center
08:56PM 58.1167 -85.7167 51° Northeast 550 633 35,000  Level Edmonton Center
08:57PM 58.2000 -85.4667 58° Northeast 550 633 35,000  Level Edmonton Center
08:58PM 58.3167 -85.3833 21° North 560 644 35,000  Level Montreal Center
08:59PM 58.4000 -85.1500 56° Northeast 560 644 35,000  Level Montreal Center
09:00PM 58.4833 -84.9167 56° Northeast 560 644 35,000  Level Montreal Center
09:01PM 58.5833 -84.6833 51° Northeast 560 644 35,000  Level Montreal Center
09:02PM 58.6667 -84.4167 59° Northeast 560 644 35,000  Level Montreal Center
09:03PM 58.7500 -84.1667 57° Northeast 560 644 35,000  Level Montreal Center
09:04PM 58.8500 -83.9000 54° Northeast 560 644 35,000  Level Montreal Center
09:05PM 58.9333 -83.6500 57° Northeast 560 644 35,000  Level Montreal Center
09:06PM 59.0167 -83.4167 55° Northeast 560 644 35,000  Level Montreal Center
09:07PM 59.1000 -83.1667 57° Northeast 560 644 35,000  Level Montreal Center
09:08PM 59.2000 -82.8833 55° Northeast 550 633 35,000  Level Montreal Center
09:09PM 59.2833 -82.6333 57° Northeast 550 633 35,000  Level Montreal Center
09:10PM 59.3667 -82.3833 57° Northeast 560 644 35,000  Level Montreal Center
09:11PM 59.4333 -82.1333 62° Northeast 550 633 35,000  Level Montreal Center
09:12PM 59.5333 -81.9000 50° Northeast 550 633 35,000  Level Montreal Center
09:13PM 59.6167 -81.6333 58° Northeast 550 633 35,000  Level Montreal Center
09:14PM 59.6667 -81.2167 76° East 560 644 35,000  Level Edmonton Center
09:15PM 59.7333 -80.9500 64° Northeast 560 644 35,000  Level Edmonton Center
09:16PM 59.8167 -80.6667 60° Northeast 560 644 35,000  Level Edmonton Center
09:17PM 59.9333 -80.5500 27° Northeast 560 644 35,000  Level Montreal Center
09:18PM 60.0167 -80.3000 56° Northeast 560 644 35,000  Level Montreal Center
09:19PM 60.0833 -80.0333 63° Northeast 560 644 35,000  Level Montreal Center
09:20PM 60.1833 -79.7333 56° Northeast 560 644 35,000  Level Montreal Center
09:21PM 60.2500 -79.4833 62° Northeast 560 644 35,000  Level Montreal Center
09:22PM 60.3333 -79.1833 61° Northeast 560 644 35,000  Level Montreal Center
09:23PM 60.4000 -78.9167 63° Northeast 560 644 35,000  Level Montreal Center
09:24PM 60.4833 -78.6167 60° Northeast 560 644 35,000  Level Montreal Center
09:25PM 60.5500 -78.3833 60° Northeast 570 656 35,000  Level Montreal Center
09:26PM 60.6167 -78.0833 66° East 560 644 35,000  Level Montreal Center
09:27PM 60.6833 -77.8000 64° Northeast 560 644 35,000  Level Montreal Center
09:28PM 60.7667 -77.5000 60° Northeast 570 656 35,000  Level Montreal Center
09:29PM 60.8333 -77.2333 63° Northeast 570 656 35,000  Level Montreal Center
09:30PM 60.9000 -76.9167 66° East 560 644 35,000  Level Montreal Center
09:31PM 60.9667 -76.6500 63° Northeast 570 656 35,000  Level Montreal Center
09:32PM 61.0333 -76.3333 66° East 570 656 35,000  Level Montreal Center
09:33PM 61.1000 -76.0667 63° Northeast 560 644 35,000  Level Montreal Center
09:34PM 61.1833 -75.7500 61° Northeast 560 644 35,000  Level Montreal Center
09:35PM 61.2500 -75.4667 64° Northeast 560 644 35,000  Level Montreal Center
09:36PM 61.3167 -75.1500 66° East 560 644 35,000  Level Montreal Center
09:37PM 61.3833 -74.8667 64° Northeast 570 656 35,000  Level Montreal Center
09:38PM 61.4500 -74.5500 66° East 570 656 35,000  Level Montreal Center
09:39PM 61.5167 -74.2667 64° Northeast 570 656 35,000  Level Montreal Center
09:40PM 61.5833 -73.9500 66° East 570 656 35,000  Level Montreal Center
09:41PM 61.6333 -73.6667 70° East 570 656 35,000  Level Montreal Center
09:42PM 61.7000 -73.3333 67° East 570 656 35,000  Level Montreal Center
09:43PM 61.7667 -73.0167 66° East 570 656 35,000  Level Montreal Center
09:44PM 61.8333 -72.7333 63° Northeast 570 656 35,000  Level Montreal Center
09:45PM 61.9000 -72.4000 67° East 570 656 35,000  Level Montreal Center
09:46PM 61.9500 -72.1000 70° East 570 656 35,000  Level Montreal Center
09:47PM 62.0167 -71.7833 66° East 570 656 35,000  Level Montreal Center
09:48PM 62.0667 -71.4833 70° East 580 667 35,000  Level Montreal Center
09:49PM 62.1333 -71.1500 67° East 570 656 35,000  Level Montreal Center
09:50PM 62.1833 -70.8500 70° East 570 656 35,000 60 Level Montreal Center
09:51PM 62.2500 -70.5167 67° East 570 656 35,200 480 Climbing Montreal Center
09:52PM 62.3167 -70.1833 67° East 570 656 36,000 360 Climbing Montreal Center
09:53PM 62.3667 -69.8500 72° East 570 656 36,000  Level Montreal Center
09:54PM 62.4167 -69.5500 70° East 570 656 36,000  Level Montreal Center
09:55PM 62.4667 -69.2500 70° East 570 656 36,000  Level Montreal Center
09:56PM 62.5167 -68.9167 72° East 570 656 36,000  Level Montreal Center
09:57PM 62.5833 -68.6000 65° Northeast 570 656 36,000  Level Montreal Center
09:58PM 62.6333 -68.2667 72° East 570 656 36,000  Level Montreal Center
09:59PM 62.6833 -67.9500 71° East 570 656 36,000  Level Montreal Center
10:00PM 62.7167 -67.6167 78° East 570 656 36,000  Level Montreal Center
10:01PM 62.7667 -67.2667 73° East 570 656 36,000  Level Montreal Center
10:02PM 62.8167 -66.9667 70° East 570 656 36,000  Level Montreal Center
10:03PM 62.8833 -66.6167 67° East 580 667 36,000  Level Montreal Center
10:04PM 62.9500 -66.3000 65° Northeast 580 667 36,000  Level Montreal Center
10:05PM 63.0167 -65.9833 65° Northeast 580 667 36,000  Level Montreal Center
10:06PM 63.0500 -65.6667 77° East 580 667 36,000  Level Montreal Center
10:07PM 63.1333 -65.3000 63° Northeast 580 667 36,000  Level Montreal Center
10:08PM 63.1833 -64.9833 71° East 580 667 36,000  Level Montreal Center
10:09PM 63.2333 -64.6333 72° East 580 667 36,000  Level Montreal Center
10:10PM 63.2833 -64.3000 71° East 580 667 36,000  Level Montreal Center
10:11PM 63.3500 -63.9833 65° Northeast 580 667 36,000  Level Montreal Center
10:12PM 63.4000 -63.6500 71° East 580 667 36,000  Level Montreal Center
10:13PM 63.4667 -63.2833 68° East 580 667 36,000  Level Montreal Center
10:14PM 63.5167 -62.9167 73° East 580 667 36,000  Level Montreal Center
10:15PM 63.5667 -62.6000 70° East 580 667 36,000  Level Montreal Center
10:16PM 63.6333 -62.2500 67° East 580 667 36,000  Level Montreal Center
10:17PM 63.7000 -61.9167 66° East 580 667 36,000  Level Montreal Center
10:18PM 63.7500 -61.5833 71° East 580 667 36,000  Level Montreal Center
10:19PM 63.8000 -61.2833 69° East 580 667 36,000  Level Montreal Center
10:20PM 63.8500 -60.9500 71° East 580 667 36,000  Level Montreal Center
10:21PM 63.9000 -60.6167 71° East 580 667 36,000  Level Montreal Center
10:22PM 63.9667 -60.2333 68° East 580 667 36,000  Level Montreal Center
10:23PM 64.0167 -59.9000 71° East 580 667 36,000  Level Montreal Center
10:24PM 64.0500 -59.5667 77° East 570 656 36,000  Level Montreal Center
10:25PM 64.1000 -59.2167 72° East 580 667 36,000  Level Montreal Center
10:26PM 64.1500 -58.8833 71° East 580 667 36,000  Level Montreal Center
10:27PM 64.1833 -58.5000 79° East 580 667 36,000  Level Montreal Center
10:28PM 64.2333 -58.1500 72° East 580 667 36,000  Level Montreal Center
10:29PM 64.2833 -57.8167 71° East 580 667 36,000  Level Montreal Center
10:30PM 64.3167 -57.4333 78° East 580 667 36,000  Level Montreal Center
10:31PM 64.3500 -57.0833 77° East 580 667 36,000  Level Montreal Center
10:32PM 64.4000 -56.7333 72° East 580 667 36,000  Level Montreal Center
10:33PM 64.4333 -56.3833 77° East 570 656 36,000  Level Montreal Center
10:34PM 64.4833 -56.0333 72° East 580 667 36,000  Level Montreal Center
10:35PM 64.5167 -55.8000 72° East 570 656 36,000  Level Gander Center
10:36PM 64.5500 -55.4333 78° East 580 667 36,000  Level Gander Center
10:37PM 64.5833 -55.0833 77° East 570 656 36,000  Level Gander Center
10:38PM 64.6167 -54.7333 77° East 570 656 36,000  Level Gander Center
10:39PM 64.6500 -54.4167 76° East 570 656 36,000  Level Gander Center
10:40PM 64.6833 -54.0167 79° East 580 667 36,000  Level Gander Center
10:41PM 64.7167 -53.6500 78° East 580 667 36,000  Level Gander Center
10:42PM 64.7500 -53.3000 77° East 580 667 36,000  Level Gander Center
10:43PM 64.8000 -52.7833 77° East 580 667 36,000  Level Gander Center
10:44PM 64.8333 -52.4167 78° East 580 667 36,000  Level Gander Center
10:45PM 64.8667 -52.0167 79° East 580 667 36,000  Level Gander Center
10:47PM 64.8936 -51.6427 80° East  Level FlightAware Approximate
10:54PM 64.9553 -49.3203 99° East  Level FlightAware Approximate
10:55PM 64.9324 -48.9892 99° East  Level FlightAware Approximate
10:56PM 64.9087 -48.6587 99° East  Level FlightAware Approximate
10:57PM 64.8843 -48.3288 100° East  Level FlightAware Approximate
10:58PM 64.8591 -47.9995 100° East  Level FlightAware Approximate
10:59PM 64.8333 -47.6708 100° East  Level FlightAware Approximate
11:00PM 64.8067 -47.3427 101° East  Level FlightAware Approximate
11:01PM 64.7793 -47.0153 101° East  Level FlightAware Approximate
11:02PM 64.7513 -46.6886 101° East  Level FlightAware Approximate
11:03PM 64.7225 -46.3626 102° East  Level FlightAware Approximate
11:04PM 64.6931 -46.0373 102° East  Level FlightAware Approximate
11:05PM 64.6629 -45.7126 102° East  Level FlightAware Approximate
11:06PM 64.6320 -45.3887 102° East  Level FlightAware Approximate
11:07PM 64.6004 -45.0656 103° East  Level FlightAware Approximate
11:08PM 64.5681 -44.7432 103° East  Level FlightAware Approximate
11:09PM 64.5351 -44.4216 103° East  Level FlightAware Approximate
11:10PM 64.5014 -44.1008 104° East  Level FlightAware Approximate
11:11PM 64.4670 -43.7807 104° East  Level FlightAware Approximate
11:12PM 64.4319 -43.4615 104° East  Level FlightAware Approximate
11:13PM 64.3961 -43.1431 104° East  Level FlightAware Approximate
11:14PM 64.3597 -42.8256 105° East  Level FlightAware Approximate
11:15PM 64.3225 -42.5089 105° East  Level FlightAware Approximate
11:16PM 64.2847 -42.1930 105° East  Level FlightAware Approximate
11:17PM 64.2462 -41.8780 106° East  Level FlightAware Approximate
11:18PM 64.2070 -41.5639 106° East  Level FlightAware Approximate
11:19PM 64.1671 -41.2508 106° East  Level FlightAware Approximate
11:20PM 64.1266 -40.9385 106° East  Level FlightAware Approximate
11:21PM 64.0853 -40.6266 107° East  Level FlightAware Approximate
11:22PM 64.0434 -40.3156 107° East  Level FlightAware Approximate
11:23PM 64.0008 -40.0056 107° East  Level FlightAware Approximate
11:24PM 63.9536 -39.6996 109° East  Level FlightAware Approximate
11:25PM 63.9057 -39.3946 110° East  Level FlightAware Approximate
11:26PM 63.8572 -39.0907 110° East  Level FlightAware Approximate
11:27PM 63.8080 -38.7879 110° East  Level FlightAware Approximate
11:28PM 63.7582 -38.4861 110° East  Level FlightAware Approximate
11:29PM 63.7077 -38.1854 111° Southeast  Level FlightAware Approximate
11:30PM 63.6567 -37.8857 111° Southeast  Level FlightAware Approximate
11:31PM 63.6050 -37.5872 111° Southeast  Level FlightAware Approximate
11:32PM 63.5527 -37.2897 111° Southeast  Level FlightAware Approximate
11:33PM 63.4998 -36.9933 112° Southeast  Level FlightAware Approximate
11:34PM 63.4462 -36.6981 112° Southeast  Level FlightAware Approximate
11:35PM 63.3921 -36.4039 112° Southeast  Level FlightAware Approximate
11:36PM 63.3374 -36.1109 112° Southeast  Level FlightAware Approximate
11:37PM 63.2820 -35.8189 113° Southeast  Level FlightAware Approximate
11:38PM 63.2261 -35.5281 113° Southeast  Level FlightAware Approximate
11:39PM 63.1696 -35.2384 113° Southeast  Level FlightAware Approximate
11:40PM 63.1125 -34.9499 114° Southeast  Level FlightAware Approximate
11:41PM 63.0548 -34.6625 114° Southeast  Level FlightAware Approximate
11:42PM 62.9965 -34.3763 114° Southeast  Level FlightAware Approximate
11:43PM 62.9377 -34.0911 114° Southeast  Level FlightAware Approximate
11:44PM 62.8783 -33.8072 115° Southeast  Level FlightAware Approximate
11:45PM 62.8183 -33.5244 115° Southeast  Level FlightAware Approximate
11:46PM 62.7577 -33.2427 115° Southeast  Level FlightAware Approximate
11:47PM 62.6966 -32.9622 115° Southeast  Level FlightAware Approximate
11:48PM 62.6349 -32.6829 116° Southeast  Level FlightAware Approximate
11:49PM 62.5727 -32.4047 116° Southeast  Level FlightAware Approximate
11:50PM 62.5099 -32.1277 116° Southeast  Level FlightAware Approximate
11:51PM 62.4466 -31.8519 116° Southeast  Level FlightAware Approximate
11:52PM 62.3828 -31.5772 117° Southeast  Level FlightAware Approximate
11:53PM 62.3184 -31.3037 117° Southeast  Level FlightAware Approximate
11:54PM 62.2534 -31.0314 117° Southeast  Level FlightAware Approximate
11:55PM 62.1879 -30.7603 117° Southeast  Level FlightAware Approximate
11:56PM 62.1219 -30.4903 118° Southeast  Level FlightAware Approximate
11:57PM 62.0554 -30.2215 118° Southeast  Level FlightAware Approximate
11:58PM 61.9889 -29.9534 117° Southeast  Level FlightAware Approximate
11:59PM 61.9241 -29.6839 117° Southeast  Level FlightAware Approximate
12:00AM 61.8587 -29.4155 117° Southeast  Level FlightAware Approximate
12:01AM 61.7929 -29.1483 117° Southeast  Level FlightAware Approximate
12:02AM 61.7265 -28.8822 118° Southeast  Level FlightAware Approximate
12:03AM 61.6596 -28.6173 118° Southeast  Level FlightAware Approximate
12:04AM 61.5922 -28.3535 118° Southeast  Level FlightAware Approximate
12:05AM 61.5243 -28.0909 118° Southeast  Level FlightAware Approximate
12:06AM 61.4559 -27.8294 119° Southeast  Level FlightAware Approximate
12:07AM 61.3870 -27.5690 119° Southeast  Level FlightAware Approximate
12:08AM 61.3176 -27.3099 119° Southeast  Level FlightAware Approximate
12:09AM 61.2478 -27.0518 119° Southeast  Level FlightAware Approximate
12:10AM 61.1774 -26.7950 120° Southeast  Level FlightAware Approximate
12:11AM 61.1065 -26.5392 120° Southeast  Level FlightAware Approximate
12:12AM 61.0352 -26.2846 120° Southeast  Level FlightAware Approximate
12:13AM 60.9634 -26.0312 120° Southeast  Level FlightAware Approximate
12:14AM 60.8911 -25.7789 120° Southeast  Level FlightAware Approximate
12:15AM 60.8183 -25.5277 121° Southeast  Level FlightAware Approximate
12:16AM 60.7451 -25.2777 121° Southeast  Level FlightAware Approximate
12:17AM 60.6714 -25.0289 121° Southeast  Level FlightAware Approximate
12:18AM 60.5973 -24.7811 121° Southeast  Level FlightAware Approximate
12:19AM 60.5227 -24.5345 122° Southeast  Level FlightAware Approximate
12:20AM 60.4476 -24.2891 122° Southeast  Level FlightAware Approximate
12:21AM 60.3721 -24.0448 122° Southeast  Level FlightAware Approximate
12:22AM 60.2962 -23.8016 122° Southeast  Level FlightAware Approximate
12:23AM 60.2198 -23.5595 122° Southeast  Level FlightAware Approximate
12:24AM 60.1429 -23.3186 123° Southeast  Level FlightAware Approximate
12:25AM 60.0657 -23.0788 123° Southeast  Level FlightAware Approximate
12:26AM 59.9880 -22.8401 123° Southeast  Level FlightAware Approximate
12:27AM 59.9099 -22.6026 123° Southeast  Level FlightAware Approximate
12:28AM 59.8313 -22.3662 123° Southeast  Level FlightAware Approximate
12:29AM 59.7523 -22.1308 124° Southeast  Level FlightAware Approximate
12:30AM 59.6727 -21.8958 124° Southeast  Level FlightAware Approximate
12:31AM 59.5926 -21.6620 124° Southeast  Level FlightAware Approximate
12:32AM 59.5121 -21.4292 124° Southeast  Level FlightAware Approximate
12:33AM 59.4312 -21.1976 124° Southeast  Level FlightAware Approximate
12:34AM 59.3499 -20.9670 125° Southeast  Level FlightAware Approximate
12:35AM 59.2682 -20.7376 125° Southeast  Level FlightAware Approximate
12:36AM 59.1860 -20.5093 125° Southeast  Level FlightAware Approximate
12:37AM 59.1035 -20.2820 125° Southeast  Level FlightAware Approximate
12:38AM 59.0206 -20.0559 125° Southeast  Level FlightAware Approximate
12:39AM 58.9655 -19.8026 109° East  Level FlightAware Approximate
12:40AM 58.9192 -19.5407 109° East  Level FlightAware Approximate
12:41AM 58.8724 -19.2796 109° East  Level FlightAware Approximate
12:42AM 58.8250 -19.0192 109° East  Level FlightAware Approximate
12:43AM 58.7771 -18.7595 109° East  Level FlightAware Approximate
12:44AM 58.7287 -18.5005 110° East  Level FlightAware Approximate
12:45AM 58.6798 -18.2422 110° East  Level FlightAware Approximate
12:46AM 58.6303 -17.9847 110° East  Level FlightAware Approximate
12:47AM 58.5804 -17.7279 110° East  Level FlightAware Approximate
12:48AM 58.5299 -17.4718 111° Southeast  Level FlightAware Approximate
12:49AM 58.4790 -17.2165 111° Southeast  Level FlightAware Approximate
12:50AM 58.4275 -16.9619 111° Southeast  Level FlightAware Approximate
12:51AM 58.3755 -16.7080 111° Southeast  Level FlightAware Approximate
12:52AM 58.3230 -16.4550 111° Southeast  Level FlightAware Approximate
12:53AM 58.2700 -16.2026 112° Southeast  Level FlightAware Approximate
12:54AM 58.2166 -15.9510 112° Southeast  Level FlightAware Approximate
12:55AM 58.1626 -15.7002 112° Southeast  Level FlightAware Approximate
12:56AM 58.1081 -15.4501 112° Southeast  Level FlightAware Approximate
12:57AM 58.0532 -15.2009 113° Southeast  Level FlightAware Approximate
12:58AM 57.9977 -14.9523 113° Southeast  Level FlightAware Approximate
12:59AM 57.9418 -14.7046 113° Southeast  Level FlightAware Approximate
01:00AM 57.8854 -14.4576 113° Southeast  Level FlightAware Approximate
01:01AM 57.8286 -14.2114 113° Southeast  Level FlightAware Approximate
01:02AM 57.7712 -13.9660 114° Southeast  Level FlightAware Approximate
01:03AM 57.7134 -13.7214 114° Southeast  Level FlightAware Approximate
01:04AM 57.6551 -13.4775 114° Southeast  Level FlightAware Approximate
01:05AM 57.5963 -13.2344 114° Southeast  Level FlightAware Approximate
01:06AM 57.5371 -12.9922 114° Southeast  Level FlightAware Approximate
01:07AM 57.4774 -12.7507 115° Southeast  Level FlightAware Approximate
01:08AM 57.4173 -12.5100 115° Southeast  Level FlightAware Approximate
01:09AM 57.3567 -12.2701 115° Southeast  Level FlightAware Approximate
01:10AM 57.2956 -12.0309 115° Southeast  Level FlightAware Approximate
01:11AM 57.2341 -11.7926 115° Southeast  Level FlightAware Approximate
01:12AM 57.1721 -11.5551 116° Southeast  Level FlightAware Approximate
01:12AM 56.1860 -8.9725 116° Southeast 500 575 39,000  Level FlightAware UK
01:13AM 56.1589 -8.8515 112° Southeast 498 573 39,000  Level FlightAware UK
01:13AM 56.1309 -8.7316 113° Southeast 498 573 39,000  Level FlightAware UK
01:14AM 56.1034 -8.6130 113° Southeast 490 564 39,000  Level FlightAware UK
01:14AM 56.0759 -8.4946 113° Southeast 490 564 39,000  Level FlightAware UK
01:15AM 56.0483 -8.3765 113° Southeast 490 564 39,000  Level FlightAware UK
01:15AM 56.0206 -8.2588 113° Southeast 488 562 39,000  Level FlightAware UK
01:16AM 55.9929 -8.1416 113° Southeast 486 559 39,000  Level FlightAware UK
01:16AM 55.9850 -8.1084 113° Southeast 511 588 39,000  Level FlightAware ADS-B
01:16AM 55.9655 -8.0247 113° Southeast 486 559 39,000  Level FlightAware UK
01:17AM 55.9376 -7.9083 113° Southeast 486 559 39,000  Level FlightAware UK
01:17AM 55.9256 -7.8597 113° Southeast 511 588 39,000  Level FlightAware ADS-B
01:17AM 55.8919 -7.7203 113° Southeast 510 587 39,000  Level FlightAware ADS-B
01:18AM 55.8638 -7.6043 113° Southeast 510 587 39,000  Level FlightAware ADS-B
01:18AM 55.8288 -7.4600 113° Southeast 510 587 39,000  Level FlightAware ADS-B
01:19AM 55.7964 -7.3281 114° Southeast 511 588 39,000  Level FlightAware ADS-B
01:20AM 55.7659 -7.2048 114° Southeast 515 593 39,000  Level FlightAware ADS-B
01:20AM 55.7303 -7.0616 114° Southeast 514 592 39,000  Level FlightAware ADS-B
01:21AM 55.6915 -6.9067 114° Southeast 512 589 39,000  Level FlightAware ADS-B
01:21AM 55.6636 -6.7954 114° Southeast 512 589 39,000  Level FlightAware ADS-B
01:22AM 55.6337 -6.6774 114° Southeast 511 588 39,000  Level FlightAware ADS-B
01:22AM 55.6044 -6.5617 114° Southeast 513 590 39,000  Level FlightAware ADS-B
01:23AM 55.5658 -6.4109 114° Southeast 514 592 39,000  Level FlightAware ADS-B
01:24AM 55.5360 -6.2945 114° Southeast 486 559 39,000  Level FlightAware UK
01:24AM 55.5358 -6.2943 114° Southeast 515 593 39,000  Level FlightAware ADS-B
01:24AM 55.5060 -6.1792 115° Southeast 512 589 39,000  Level FlightAware ADS-B
01:25AM 55.4771 -6.0681 115° Southeast 513 590 39,000  Level FlightAware ADS-B
01:25AM 55.4364 -5.9124 115° Southeast 512 589 39,000  Level FlightAware ADS-B
01:26AM 55.4087 -5.8069 115° Southeast 513 590 39,000  Level FlightAware ADS-B
01:26AM 55.3768 -5.6870 115° Southeast 513 590 39,000  Level FlightAware ADS-B
01:27AM 55.3365 -5.5352 115° Southeast 514 592 39,000  Level FlightAware ADS-B
01:27AM 55.3070 -5.4253 115° Southeast 514 592 39,000  Level FlightAware ADS-B
01:28AM 55.2758 -5.3091 115° Southeast 512 589 39,000  Level FlightAware ADS-B
01:28AM 55.2466 -5.2007 115° Southeast 512 589 39,000  Level FlightAware ADS-B
01:29AM 55.2140 -5.0806 115° Southeast 511 588 39,000  Level FlightAware ADS-B
01:30AM 55.1740 -4.9340 115° Southeast 510 587 39,000  Level FlightAware ADS-B
01:30AM 55.1431 -4.8223 116° Southeast 509 586 39,000  Level FlightAware ADS-B
01:31AM 55.1061 -4.7255 124° Southeast 502 578 39,000  Level FlightAware ADS-B
01:31AM 55.0558 -4.6420 136° Southeast 489 563 39,000  Level FlightAware ADS-B
01:32AM 54.9992 -4.5731 145° Southeast 485 558 39,000  Level FlightAware ADS-B
01:32AM 54.9352 -4.4972 146° Southeast 482 555 39,000  Level FlightAware ADS-B
01:33AM 54.8759 -4.4274 146° Southeast 478 550 39,000  Level FlightAware ADS-B
01:33AM 54.8212 -4.3632 146° Southeast 471 542 39,000  Level FlightAware ADS-B
01:33AM 54.8008 -4.3393 146° Southeast 471 542 39,000 -180 Level FlightAware ADS-B
01:34AM 54.7346 -4.2611 146° Southeast 492 566 38,900  Descending FlightAware UK
01:34AM 54.7277 -4.2534 146° Southeast 466 536 39,000 120 Climbing FlightAware ADS-B
01:35AM 54.6574 -4.1715 146° Southeast 470 541 39,000  Level FlightAware ADS-B
01:35AM 54.6041 -4.1094 146° Southeast 468 539 39,000  Level FlightAware ADS-B
01:36AM 54.5487 -4.0452 146° Southeast 467 537 39,000  Level FlightAware ADS-B
01:36AM 54.4968 -3.9854 146° Southeast 466 536 39,000  Level FlightAware ADS-B
01:37AM 54.4431 -3.9234 146° Southeast 465 535 39,000  Level FlightAware ADS-B
01:37AM 54.3893 -3.8617 146° Southeast 465 535 39,000  Level FlightAware ADS-B
01:38AM 54.3361 -3.8010 146° Southeast 465 535 39,000  Level FlightAware ADS-B
01:38AM 54.2829 -3.7403 146° Southeast 465 535 39,000  Level FlightAware ADS-B
01:39AM 54.2293 -3.6794 146° Southeast 466 536 39,000  Level FlightAware ADS-B
01:39AM 54.1742 -3.6169 146° Southeast 465 535 39,000  Level FlightAware ADS-B
01:40AM 54.1209 -3.5564 146° Southeast 466 536 39,000  Level FlightAware ADS-B
01:40AM 54.0711 -3.5003 147° Southeast 465 535 39,000  Level FlightAware ADS-B
01:41AM 54.0176 -3.4404 147° Southeast 467 537 39,000  Level FlightAware ADS-B (EGXW / WTN)
01:41AM 53.9595 -3.3756 147° Southeast 462 532 39,000  Level FlightAware ADS-B
01:42AM 53.9075 -3.3174 147° Southeast 463 533 39,000  Level FlightAware ADS-B
01:42AM 53.8499 -3.2532 147° Southeast 465 535 39,000  Level FlightAware ADS-B
01:43AM 53.7941 -3.1913 147° Southeast 467 537 39,000  Level FlightAware ADS-B
01:43AM 53.7806 -3.1763 147° Southeast 473 544 39,000  Level FlightAware ADS-B (EGXW / WTN)
01:43AM 53.7561 -3.1493 147° Southeast 473 544 39,000  Level FlightAware ADS-B
01:43AM 53.7360 -3.1271 147° Southeast 474 545 39,000  Level FlightAware ADS-B (EGXW / WTN)
01:44AM 53.7005 -3.0879 147° Southeast 475 547 39,000  Level FlightAware ADS-B
01:44AM 53.6770 -3.0621 147° Southeast 475 547 39,000  Level FlightAware ADS-B
01:44AM 53.6418 -3.0234 147° Southeast 475 547 39,000  Level FlightAware ADS-B
01:44AM 53.6135 -2.9925 147° Southeast 476 548 39,000  Level FlightAware ADS-B (EGXW / WTN)
01:45AM 53.5833 -2.9595 147° Southeast 476 548 39,000  Level FlightAware ADS-B
01:45AM 53.5557 -2.9293 147° Southeast 476 548 39,000  Level FlightAware ADS-B (EGXW / WTN)
01:45AM 53.5277 -2.8987 147° Southeast 476 548 39,000  Level FlightAware ADS-B
01:45AM 53.4993 -2.8678 147° Southeast 477 549 39,000  Level FlightAware ADS-B (EGXW / WTN)
01:46AM 53.4687 -2.8344 147° Southeast 478 550 39,000  Level FlightAware ADS-B
01:46AM 53.4116 -2.7725 147° Southeast 479 551 39,000  Level FlightAware ADS-B
01:46AM 53.3949 -2.7543 147° Southeast 480 552 39,000  Level FlightAware ADS-B
01:47AM 53.3516 -2.7077 147° Southeast 482 555 39,000  Level FlightAware ADS-B
01:47AM 53.3310 -2.6855 147° Southeast 482 555 39,000  Level FlightAware ADS-B (EGCD)
01:47AM 53.2774 -2.6279 147° Southeast 484 557 39,000  Level FlightAware ADS-B
01:47AM 53.2725 -2.6227 148° Southeast 485 558 39,000  Level FlightAware ADS-B (EGXW / WTN)
01:48AM 53.2198 -2.5662 147° Southeast 485 558 39,000  Level FlightAware ADS-B
01:48AM 53.2180 -2.5641 146° Southeast 479 551 39,000  Level FlightAware ADS-B (EGCD)
01:48AM 53.1601 -2.5022 147° Southeast 477 549 39,000  Level FlightAware ADS-B (EGCD)
01:49AM 53.1039 -2.4423 147° Southeast 483 556 39,000  Level FlightAware ADS-B (EGCD)
01:49AM 53.0895 -2.4262 146° Southeast 477 549 39,000  Level FlightAware ADS-B
01:49AM 53.0774 -2.4108 143° Southeast 479 551 39,000  Level FlightAware ADS-B
01:49AM 53.0611 -2.3863 138° Southeast 487 560 39,000  Level FlightAware ADS-B
01:49AM 53.0567 -2.3789 135° Southeast 487 560 39,000  Level FlightAware ADS-B (EGCW)
01:50AM 53.0410 -2.3512 133° Southeast 488 562 39,000  Level FlightAware ADS-B
01:50AM 53.0105 -2.2951 132° Southeast 489 563 39,000  Level FlightAware ADS-B
01:50AM 52.9939 -2.2646 132° Southeast 489 563 39,000  Level FlightAware ADS-B
01:50AM 52.9638 -2.2099 132° Southeast 489 563 39,000  Level FlightAware ADS-B
01:51AM 52.9471 -2.1795 132° Southeast 490 564 39,000  Level FlightAware ADS-B
01:51AM 52.9164 -2.1236 132° Southeast 491 565 39,000  Level FlightAware ADS-B (EGCD)
01:51AM 52.9011 -2.0958 132° Southeast 491 565 39,000  Level FlightAware ADS-B
01:51AM 52.8739 -2.0464 132° Southeast 492 566 39,000  Level FlightAware ADS-B (EGCW)
01:52AM 52.8531 -2.0088 133° Southeast 492 566 39,000  Level FlightAware ADS-B
01:52AM 52.8338 -1.9739 132° Southeast 487 560 39,000  Level FlightAware ADS-B (EGHH / BOH)
01:52AM 52.8221 -1.9530 133° Southeast 493 567 39,000  Level FlightAware ADS-B
01:52AM 52.8092 -1.9297 133° Southeast 493 567 39,000  Level FlightAware ADS-B (EGCW)
01:52AM 52.8052 -1.9225 132° Southeast 493 567 39,000  Level FlightAware ADS-B
01:52AM 52.7855 -1.8871 133° Southeast 494 568 39,000  Level FlightAware ADS-B
01:53AM 52.7578 -1.8372 133° Southeast 494 568 39,000  Level FlightAware ADS-B
01:53AM 52.7389 -1.8036 133° Southeast 495 570 39,000  Level FlightAware ADS-B (EGDM)
01:53AM 52.7107 -1.7536 133° Southeast 494 568 39,000  Level FlightAware ADS-B
01:53AM 52.6914 -1.7196 133° Southeast 493 567 39,000  Level FlightAware ADS-B
01:54AM 52.6635 -1.6702 133° Southeast 493 567 39,000  Level FlightAware ADS-B
01:54AM 52.6366 -1.6224 133° Southeast 493 567 39,000  Level FlightAware ADS-B (EGCW)
01:54AM 52.6170 -1.5881 133° Southeast 493 567 39,000  Level FlightAware ADS-B
01:54AM 52.5903 -1.5414 133° Southeast 492 566 39,000  Level FlightAware ADS-B (EGXW / WTN)
01:55AM 52.5682 -1.5029 133° Southeast 491 565 39,000  Level FlightAware ADS-B
01:55AM 52.5368 -1.4484 133° Southeast 490 564 39,000  Level FlightAware ADS-B (EGDM)
01:55AM 52.5211 -1.4217 134° Southeast 490 564 39,000  Level FlightAware ADS-B
01:56AM 52.4931 -1.3731 133° Southeast 490 564 39,000  Level FlightAware ADS-B (EGCW)
01:56AM 52.4735 -1.3393 134° Southeast 490 564 39,000  Level FlightAware ADS-B
01:56AM 52.4461 -1.2921 134° Southeast 489 563 39,000  Level FlightAware ADS-B
01:56AM 52.4252 -1.2563 134° Southeast 489 563 39,000  Level FlightAware ADS-B
01:57AM 52.3932 -1.2020 134° Southeast 489 563 39,000  Level FlightAware ADS-B (EGDM)
01:57AM 52.3761 -1.1727 134° Southeast 489 563 39,000  Level FlightAware ADS-B
01:57AM 52.3676 -1.1584 134° Southeast 489 563 39,000  Level FlightAware ADS-B (EGXW / WTN)
01:57AM 52.3273 -1.0897 134° Southeast 489 563 39,000  Level FlightAware ADS-B
01:57AM 52.3180 -1.0738 134° Southeast 489 563 39,000  Level FlightAware ADS-B
01:57AM 52.3074 -1.0555 133° Southeast 490 564 39,000  Level FlightAware ADS-B (EGHH / BOH)
01:58AM 52.2801 -1.0084 133° Southeast 490 564 39,000  Level FlightAware ADS-B
01:58AM 52.2600 -0.9735 133° Southeast 491 565 39,000  Level FlightAware ADS-B
01:58AM 52.2326 -0.9264 133° Southeast 490 564 39,000  Level FlightAware ADS-B
01:58AM 52.2280 -0.9184 133° Southeast 490 564 39,000  Level FlightAware ADS-B (EGLF / FAB)
01:59AM 52.1859 -0.8465 134° Southeast 489 563 39,000  Level FlightAware ADS-B
01:59AM 52.1726 -0.8237 134° Southeast 489 563 39,000  Level FlightAware ADS-B (EGDM)
01:59AM 52.1389 -0.7668 134° Southeast 487 560 39,000  Level FlightAware ADS-B
01:59AM 52.1251 -0.7436 134° Southeast 487 560 39,000  Level FlightAware ADS-B (EGDM)
02:00AM 52.0918 -0.6877 134° Southeast 485 558 39,000  Level FlightAware ADS-B
02:00AM 52.0771 -0.6631 134° Southeast 485 558 39,000  Level FlightAware ADS-B (EPWR / WRO)
02:00AM 52.0440 -0.6073 134° Southeast 484 557 39,000  Level FlightAware ADS-B
02:01AM 52.0176 -0.5630 134° Southeast 484 557 39,000  Level FlightAware ADS-B (EGDM)
02:01AM 51.9969 -0.5281 134° Southeast 483 556 39,000  Level FlightAware ADS-B
02:01AM 51.9706 -0.4839 134° Southeast 483 556 39,000  Level FlightAware ADS-B (EGDM)
02:01AM 51.9614 -0.4681 133° Southeast 483 556 39,000  Level FlightAware ADS-B
02:01AM 51.9463 -0.4386 130° Southeast 485 558 39,000  Level FlightAware ADS-B
02:01AM 51.9375 -0.4193 126° Southeast 482 555 39,000  Level FlightAware ADS-B (EGHH / BOH)
02:02AM 51.9339 -0.4111 125° Southeast 487 560 39,000  Level FlightAware ADS-B (EPWR / WRO)
02:02AM 51.9073 -0.3481 124° Southeast 486 559 39,000  Level FlightAware ADS-B
02:02AM 51.8866 -0.2990 124° Southeast 486 559 39,000  Level FlightAware ADS-B (EPWR / WRO)
02:02AM 51.8688 -0.2572 125° Southeast 485 558 39,000  Level FlightAware ADS-B
02:03AM 51.8530 -0.2202 125° Southeast 486 559 39,000  Level FlightAware ADS-B (EGWE)
02:03AM 51.8402 -0.1897 124° Southeast 486 559 39,000  Level FlightAware ADS-B
02:03AM 51.8384 -0.1855 124° Southeast 486 559 39,000  Level FlightAware ADS-B (EGWE)
02:03AM 51.8292 -0.1598 120° Southeast 488 562 39,000  Level FlightAware ADS-B
02:03AM 51.8278 -0.1552 117° Southeast 488 562 39,000  Level FlightAware ADS-B (EGDM)
02:03AM 51.8251 -0.1460 115° Southeast 487 560 39,000  Level FlightAware ADS-B
02:03AM 51.8177 -0.1155 111° Southeast 486 559 39,000  Level FlightAware ADS-B (EGHH / BOH)
02:03AM 51.8159 -0.1073 110° East 489 563 39,000  Level FlightAware ADS-B
02:04AM 51.8061 -0.0610 109° East 489 563 39,000  Level FlightAware ADS-B (EGDM)
02:04AM 51.7928 0.0001 109° East 489 563 39,000  Level FlightAware ADS-B
02:04AM 51.7844 0.0362 111° Southeast 489 563 39,000  Level FlightAware ADS-B (EGLC / LCY)
02:04AM 51.7682 0.1025 112° Southeast 488 562 39,000  Level FlightAware ADS-B
02:04AM 51.7585 0.1401 113° Southeast 488 562 39,000  Level FlightAware ADS-B (EGLC / LCY)
02:05AM 51.7412 0.2055 113° Southeast 488 562 39,000  Level FlightAware ADS-B
02:05AM 51.7296 0.2487 113° Southeast 488 562 39,000  Level FlightAware ADS-B
02:05AM 51.7142 0.3049 114° Southeast 487 560 39,000  Level FlightAware ADS-B
02:05AM 51.7031 0.3477 113° Southeast 488 562 39,000  Level FlightAware ADS-B (EGLC / LCY)
02:06AM 51.6863 0.4150 112° Southeast 488 562 39,000  Level FlightAware ADS-B
02:06AM 51.6741 0.4649 112° Southeast 488 562 39,000  Level FlightAware ADS-B
02:06AM 51.6567 0.5350 112° Southeast 489 563 39,000  Level FlightAware ADS-B
02:07AM 51.6461 0.5774 112° Southeast 489 563 39,000  Level FlightAware ADS-B (EGLC / LCY)
02:07AM 51.6312 0.6365 112° Southeast 489 563 39,000  Level FlightAware ADS-B
02:07AM 51.6199 0.6809 112° Southeast 489 563 39,000  Level FlightAware ADS-B
02:07AM 51.6055 0.7373 112° Southeast 490 564 39,000  Level FlightAware ADS-B
02:08AM 51.5968 0.7716 112° Southeast 490 564 39,000  Level FlightAware ADS-B (EGLC / LCY)
02:08AM 51.5782 0.8434 113° Southeast 490 564 39,000  Level FlightAware ADS-B
02:08AM 51.5632 0.9018 112° Southeast 490 564 39,000  Level FlightAware ADS-B
02:08AM 51.5503 0.9513 113° Southeast 490 564 39,000  Level FlightAware ADS-B
02:09AM 51.5359 1.0067 113° Southeast 489 563 39,000  Level FlightAware ADS-B
02:09AM 51.5241 1.0520 113° Southeast 488 562 39,000  Level FlightAware ADS-B
02:09AM 51.5108 1.1034 113° Southeast 488 562 39,000  Level FlightAware ADS-B
02:09AM 51.4977 1.1539 113° Southeast 488 562 39,000  Level FlightAware ADS-B
02:10AM 51.4812 1.2172 113° Southeast 488 562 39,000  Level FlightAware ADS-B (EGLC / LCY)
02:10AM 51.4699 1.2604 113° Southeast 488 562 39,000  Level FlightAware ADS-B
02:10AM 51.4509 1.3328 113° Southeast 488 562 39,000  Level FlightAware ADS-B (EGLF / FAB)
02:10AM 51.4423 1.3654 113° Southeast 488 562 39,000  Level FlightAware ADS-B
02:11AM 51.4240 1.4353 113° Southeast 486 559 39,000  Level FlightAware ADS-B (EGLF / FAB)
02:11AM 51.4143 1.4719 113° Southeast 489 563 39,000  Level FlightAware ADS-B
02:12AM 51.3849 1.5831 113° Southeast 491 565 39,000  Level FlightAware ADS-B
02:12AM 51.3770 1.6130 113° Southeast 491 565 39,000  Level FlightAware ADS-B
02:13AM 51.3358 1.7776 112° Southeast 492 566 39,000  Level FlightAware ADS-B (EGLC / LCY)
02:13AM 51.3133 1.8962 107° East 492 566 39,000  Level FlightAware ADS-B
02:14AM 51.2938 1.9987 107° East 492 566 39,000  Level FlightAware ADS-B
02:14AM 51.2669 2.1339 108° East 492 566 39,000  Level FlightAware ADS-B
02:15AM 51.2357 2.2981 108° East 490 564 39,000  Level FlightAware UK
02:16AM 51.2123 2.4221 107° East 488 562 39,000  Level FlightAware UK
02:16AM 51.1922 2.5259 107° East 488 562 39,000  Level FlightAware UK
02:17AM 51.1720 2.6305 107° East 490 564 39,000  Level FlightAware UK
02:17AM 51.1518 2.7343 107° East 490 564 39,000  Level FlightAware UK
02:18AM 51.1275 2.8583 107° East 494 568 39,000  Level FlightAware UK
02:18AM 51.1030 2.9820 107° East 494 568 39,000  Level FlightAware UK
02:19AM 51.0786 3.1059 107° East 494 568 39,000  Level FlightAware UK
02:19AM 51.0584 3.2080 107° East 492 566 39,000  Level FlightAware UK
02:20AM 51.0298 3.3509 108° East 494 568 39,000  Level FlightAware UK
02:21AM 51.0090 3.4519 108° East 492 566 39,000  Level FlightAware UK
02:21AM 50.9806 3.5937 108° East 492 566 39,000  Level FlightAware UK
02:22AM 50.9560 3.7146 108° East 488 562 39,000  Level FlightAware UK
02:24AM 50.8685 4.1369 108° East 488 562 39,000  Level FlightAware UK
02:25AM 50.8306 4.3185 108° East 490 564 39,000  Level FlightAware UK
02:27AM 50.7621 4.6399 109° East 494 568 39,000  Level FlightAware UK
02:27AM 50.7324 4.7802 108° East 494 568 39,000 -1,020 Level FlightAware UK
02:32AM 50.5769 5.7548 108° East 472 543 33,500 -1,140 Descending FlightAware ADS-B
02:35AM 50.4814 6.2686 107° East  Level Estimated
02:36AM 50.4113 6.4657 119° Southeast  Level FlightAware Approximate
02:37AM 50.3731 6.6831 103° East  Level Estimated
02:38AM 50.3287 6.8974 108° East  Level FlightAware Approximate
02:39AM 50.2839 7.1113 108° East  Level FlightAware Approximate
02:40AM 50.2387 7.3248 108° East  Level FlightAware Approximate
02:41AM 50.2019 7.5420 106° East  Level Estimated
02:42AM 50.1647 7.7589 104° East  Level Estimated
02:43AM 50.1272 7.9754 97° East  Level Estimated
02:44AM 50.0832 8.1843 101° East  Level FlightAware Approximate
02:45AM 50.0542 8.4036 103° East  Level FlightAware Approximate
02:46AM 50.0264 8.5431 111° Southeast  Level Estimated
02:47AM 50.0264 8.5431 111° Southeast  Level Estimated
02:48AM 50.0264 8.5431 111° Southeast  Level Estimated
02:49AM 50.0264 8.5431 111° Southeast  Level Estimated
02:50AM 50.0264 8.5431 111° Southeast  Level Estimated
02:51AM 50.0264 8.5431 111° Southeast  Level Estimated
02:52AM 50.0264 8.5431 111° Southeast  Level Estimated
02:53AM 50.0264 8.5431 111° Southeast  Level Estimated
02:54AM 50.0264 8.5431 111° Southeast  Level Estimated
02:55AM 50.0264 8.5431 111° Southeast  Level Estimated
02:56AM 50.0264 8.5431 111° Southeast  Level Estimated
02:57AM 50.0264 8.5431 111° Southeast  Level Estimated
02:58AM 50.0264 8.5431 111° Southeast  Level Estimated
02:59AM 50.0264 8.5431 111° Southeast  Level Estimated
03:00AM 50.0264 8.5431 111° Southeast  Level Estimated
03:01AM 50.0264 8.5431 111° Southeast  Level Estimated
03:02AM 50.0264 8.5431 111° Southeast  Level Estimated
03:03AM 50.0264 8.5431 111° Southeast  Level Estimated
03:04AM 50.0264 8.5431 111° Southeast  Level Estimated
03:05AM 50.0264 8.5431 111° Southeast  Level Estimated
03:06AM 50.0264 8.5431 111° Southeast  Level Estimated
03:07AM 50.0264 8.5431 111° Southeast  Level Estimated
03:08AM 50.0264 8.5431 111° Southeast  Level Estimated
03:09AM 50.0264 8.5431 111° Southeast  Level Estimated
03:10AM 50.0264 8.5431 111° Southeast  Level Estimated
03:11AM 50.0264 8.5431 111° Southeast  Level Estimated
03:12AM 50.0264 8.5431 111° Southeast  Level Estimated
03:13AM 50.0264 8.5431 111° Southeast  Level Estimated